createdAt,value
2022-10-22T00:00:35.916Z,9.30
2022-10-22T00:03:02.833Z,6.90
2022-10-22T00:05:29.700Z,6.13
2022-10-22T00:07:56.605Z,8.35
2022-10-22T00:10:23.497Z,7.55
2022-10-22T00:12:50.384Z,3.75
2022-10-22T00:15:17.655Z,5.82
2022-10-22T00:17:44.533Z,8.23
2022-10-22T00:20:11.823Z,5.95
2022-10-22T00:22:38.736Z,6.90
2022-10-22T00:25:05.860Z,6.90
2022-10-22T00:27:32.696Z,6.20
2022-10-22T00:29:59.532Z,5.22
2022-10-22T00:32:26.312Z,7.65
2022-10-22T00:34:53.171Z,5.53
2022-10-22T00:37:20.052Z,5.25
2022-10-22T00:39:46.905Z,6.47
2022-10-22T00:42:21.487Z,5.13
2022-10-22T00:47:37.540Z,5.35
2022-10-22T00:50:09.628Z,7.03
2022-10-22T00:52:36.912Z,5.93
2022-10-22T00:55:05.072Z,4.80
2022-10-22T00:57:32.592Z,6.90
2022-10-22T00:59:59.554Z,6.93
2022-10-22T01:02:27.700Z,5.28
2022-10-22T01:04:54.588Z,4.20
2022-10-22T01:07:24.508Z,5.70
2022-10-22T01:10:08.796Z,6.95
2022-10-22T01:12:53.654Z,5.07
2022-10-22T01:18:06.951Z,7.25
2022-10-22T01:20:39.732Z,7.72
2022-10-22T01:23:44.044Z,4.15
2022-10-22T01:26:53.290Z,4.82
2022-10-22T01:29:40.960Z,4.55
2022-10-22T01:32:12.825Z,6.35
2022-10-22T01:34:44.170Z,4.13
2022-10-22T01:37:14.305Z,7.20
2022-10-22T01:39:44.881Z,4.40
2022-10-22T01:42:12.890Z,5.28
2022-10-22T01:44:40.193Z,4.45
2022-10-22T01:47:25.425Z,7.55
2022-10-22T01:50:13.288Z,4.93
2022-10-22T01:52:49.296Z,4.22
2022-10-22T01:55:47.721Z,5.15
2022-10-22T01:58:40.469Z,7.57
2022-10-22T02:01:30.297Z,5.50
2022-10-22T02:04:15.488Z,5.70
2022-10-22T02:06:44.557Z,6.90
2022-10-22T02:09:15.866Z,7.50
2022-10-22T02:11:44.270Z,7.75
2022-10-22T02:14:12.877Z,7.32
2022-10-22T02:16:43.362Z,7.32
2022-10-22T02:19:53.089Z,6.30
2022-10-22T02:22:20.527Z,5.90
2022-10-22T02:24:49.284Z,6.35
2022-10-22T02:27:31.929Z,7.07
2022-10-22T02:30:01.817Z,3.88
2022-10-22T02:32:34.503Z,4.35
2022-10-22T02:35:03.406Z,4.30
2022-10-22T02:37:31.041Z,8.05
2022-10-22T02:39:57.941Z,4.88
2022-10-22T02:42:26.459Z,4.90
2022-10-22T02:44:53.387Z,2.60
2022-10-22T02:47:20.305Z,5.95
2022-10-22T02:49:47.267Z,3.35
2022-10-22T02:52:14.575Z,4.07
2022-10-22T02:54:41.446Z,3.28
2022-10-22T02:57:08.305Z,7.47
2022-10-22T02:59:35.471Z,4.45
2022-10-22T03:02:02.400Z,3.80
2022-10-22T03:04:29.276Z,6.82
2022-10-22T03:25:41.947Z,5.20
2022-10-22T03:28:11.137Z,5.22
2022-10-22T03:30:38.000Z,4.30
2022-10-22T03:33:04.822Z,4.85
2022-10-22T03:35:32.308Z,3.58
2022-10-22T03:38:01.291Z,4.45
2022-10-22T03:40:28.314Z,4.65
2022-10-22T03:42:55.248Z,4.63
2022-10-22T03:45:22.024Z,4.00
2022-10-22T03:47:48.816Z,5.72
2022-10-22T03:50:15.709Z,5.15
2022-10-22T03:52:42.519Z,8.63
2022-10-22T03:55:09.675Z,5.85
2022-10-22T03:57:36.944Z,3.40
2022-10-22T04:00:06.141Z,2.50
2022-10-22T04:02:33.168Z,5.22
2022-10-22T04:05:00.009Z,3.80
2022-10-22T04:07:27.302Z,5.15
2022-10-22T04:09:54.144Z,6.78
2022-10-22T04:12:21.010Z,6.85
2022-10-22T04:14:47.969Z,4.85
2022-10-22T04:17:15.485Z,4.50
2022-10-22T04:19:42.277Z,4.75
2022-10-22T04:22:09.128Z,6.07
2022-10-22T04:24:36.004Z,7.65
2022-10-22T04:27:02.772Z,7.82
2022-10-22T04:29:29.676Z,7.38
2022-10-22T04:31:56.440Z,9.95
2022-10-22T04:34:23.357Z,8.90
2022-10-22T04:36:50.189Z,9.65
2022-10-22T04:39:16.999Z,19.88
2022-10-22T04:41:43.786Z,11.20
2022-10-22T04:44:13.651Z,9.45
2022-10-22T04:46:44.141Z,6.43
2022-10-22T04:49:11.017Z,7.20
2022-10-22T04:51:37.888Z,6.15
2022-10-22T04:54:05.011Z,10.23
2022-10-22T04:56:32.465Z,8.68
2022-10-22T04:59:02.268Z,4.90
2022-10-22T05:01:36.885Z,8.52
2022-10-22T05:04:08.592Z,23.02
2022-10-22T05:06:36.886Z,8.10
2022-10-22T05:09:11.293Z,7.80
2022-10-22T05:11:46.284Z,9.63
2022-10-22T05:14:13.369Z,10.15
2022-10-22T05:16:40.291Z,10.63
2022-10-22T05:19:08.290Z,7.28
2022-10-22T05:21:35.617Z,9.93
2022-10-22T05:24:02.513Z,10.02
2022-10-22T05:26:29.872Z,11.07
2022-10-22T05:28:56.962Z,7.07
2022-10-22T05:31:24.141Z,11.98
2022-10-22T05:33:51.182Z,8.50
2022-10-22T05:36:22.908Z,7.72
2022-10-22T05:38:50.232Z,7.53
2022-10-22T05:41:27.785Z,4.60
2022-10-22T05:43:56.558Z,3.88
2022-10-22T05:46:25.188Z,10.38
2022-10-22T05:49:03.187Z,5.32
2022-10-22T05:51:34.654Z,4.57
2022-10-22T05:54:04.331Z,5.25
2022-10-22T05:56:32.464Z,4.60
2022-10-22T05:58:59.977Z,3.42
2022-10-22T06:01:32.123Z,8.20
2022-10-22T06:04:01.469Z,6.35
2022-10-22T06:06:42.326Z,4.68
2022-10-22T06:09:20.169Z,4.18
2022-10-22T06:11:47.977Z,4.30
2022-10-22T06:14:15.242Z,6.75
2022-10-22T06:16:42.398Z,5.05
2022-10-22T06:19:11.962Z,5.20
2022-10-22T06:21:38.942Z,4.40
2022-10-22T06:24:06.256Z,5.30
2022-10-22T06:26:33.250Z,5.80
2022-10-22T06:29:00.433Z,13.07
2022-10-22T06:31:28.791Z,4.65
2022-10-22T06:33:57.121Z,6.40
2022-10-22T06:36:24.753Z,5.72
2022-10-22T06:38:53.175Z,4.78
2022-10-22T06:41:22.958Z,4.57
2022-10-22T06:43:54.046Z,2.95
2022-10-22T06:46:22.121Z,5.72
2022-10-22T06:49:03.147Z,4.47
2022-10-22T06:51:30.436Z,4.95
2022-10-22T06:53:58.663Z,4.93
2022-10-22T06:56:27.596Z,2.72
2022-10-22T06:58:56.400Z,4.68
2022-10-22T07:01:27.760Z,3.40
2022-10-22T07:03:55.141Z,5.47
2022-10-22T07:06:23.273Z,4.00
2022-10-22T07:08:50.460Z,4.22
2022-10-22T07:11:18.510Z,5.20
2022-10-22T07:13:46.341Z,3.00
2022-10-22T07:16:14.778Z,6.20
2022-10-22T07:18:43.721Z,4.30
2022-10-22T07:21:12.036Z,4.47
2022-10-22T07:23:38.968Z,3.97
2022-10-22T07:26:07.580Z,3.83
2022-10-22T07:28:36.640Z,5.32
2022-10-22T07:31:03.981Z,3.28
2022-10-22T07:33:30.866Z,5.03
2022-10-22T07:35:59.893Z,5.68
2022-10-22T07:38:28.039Z,5.28
2022-10-22T07:40:55.471Z,4.65
2022-10-22T07:43:22.317Z,4.88
2022-10-22T07:45:49.238Z,4.80
2022-10-22T07:48:16.829Z,4.63
2022-10-22T07:53:11.490Z,4.50
2022-10-22T07:55:38.336Z,8.90
2022-10-22T07:58:05.187Z,5.25
2022-10-22T08:00:32.068Z,3.08
2022-10-22T08:02:58.952Z,5.97
2022-10-22T08:05:25.898Z,5.20
2022-10-22T08:07:52.729Z,4.65
2022-10-22T08:10:19.713Z,7.85
2022-10-22T08:12:46.605Z,7.55
2022-10-22T08:15:13.834Z,6.50
2022-10-22T08:17:40.940Z,3.28
2022-10-22T08:20:08.538Z,6.43
2022-10-22T08:22:35.704Z,3.53
2022-10-22T08:25:02.707Z,4.82
2022-10-22T08:27:29.641Z,4.72
2022-10-22T08:29:56.584Z,7.63
2022-10-22T08:32:23.533Z,6.60
2022-10-22T08:34:50.464Z,6.60
2022-10-22T08:37:17.981Z,4.03
2022-10-22T08:39:45.730Z,3.13
2022-10-22T08:42:27.557Z,8.50
2022-10-22T08:45:03.486Z,3.95
2022-10-22T08:47:41.647Z,4.70
2022-10-22T08:50:24.288Z,5.88
2022-10-22T08:52:57.757Z,7.72
2022-10-22T08:55:25.855Z,9.10
2022-10-22T08:58:16.045Z,5.90
2022-10-22T09:00:47.721Z,3.90
2022-10-22T09:03:17.221Z,5.22
2022-10-22T09:05:55.301Z,3.38
2022-10-22T09:08:23.329Z,4.70
2022-10-22T09:10:56.102Z,4.57
2022-10-22T09:13:24.098Z,5.80
2022-10-22T09:16:13.951Z,2.97
2022-10-22T09:19:02.863Z,4.97
2022-10-22T09:21:39.901Z,5.30
2022-10-22T09:24:30.850Z,3.40
2022-10-22T09:27:00.199Z,4.15
2022-10-22T09:29:33.294Z,3.05
2022-10-22T09:32:00.587Z,5.80
2022-10-22T09:34:30.061Z,3.83
2022-10-22T09:37:03.174Z,3.13
2022-10-22T09:39:36.993Z,3.70
2022-10-22T09:44:35.150Z,3.63
2022-10-22T09:48:00.581Z,4.70
2022-10-22T09:50:50.029Z,8.50
2022-10-22T09:53:22.111Z,4.18
2022-10-22T09:58:23.235Z,3.42
2022-10-22T10:01:00.626Z,3.08
2022-10-22T10:03:31.248Z,5.55
2022-10-22T10:06:03.078Z,3.60
2022-10-22T10:08:33.353Z,4.18
2022-10-22T10:11:06.747Z,3.88
2022-10-22T10:13:38.811Z,9.88
2022-10-22T10:16:10.934Z,18.13
2022-10-22T10:18:56.472Z,5.00
2022-10-22T10:21:26.044Z,5.80
2022-10-22T10:24:19.279Z,6.28
2022-10-22T10:26:58.581Z,6.72
2022-10-22T10:32:30.982Z,5.03
2022-10-22T10:35:35.935Z,7.68
2022-10-22T10:38:32.192Z,4.07
2022-10-22T10:41:19.300Z,4.60
2022-10-22T10:44:14.205Z,4.85
2022-10-22T10:46:43.921Z,3.72
2022-10-22T10:49:19.229Z,6.63
2022-10-22T10:52:04.738Z,4.75
2022-10-22T10:54:44.179Z,5.80
2022-10-22T10:57:29.621Z,8.10
2022-10-22T11:00:22.277Z,4.50
2022-10-22T11:03:21.025Z,6.28
2022-10-22T11:05:55.868Z,5.05
2022-10-22T11:08:28.757Z,5.65
2022-10-22T11:11:06.607Z,5.15
2022-10-22T11:13:52.881Z,7.65
2022-10-22T11:16:28.814Z,4.88
2022-10-22T11:19:04.451Z,6.15
2022-10-22T11:21:44.078Z,5.43
2022-10-22T11:24:16.808Z,3.40
2022-10-22T11:26:55.670Z,8.30
2022-10-22T11:29:29.462Z,8.85
2022-10-22T11:32:01.933Z,5.38
2022-10-22T11:34:37.874Z,5.40
2022-10-22T11:37:06.427Z,5.97
2022-10-22T11:39:45.513Z,4.57
2022-10-22T11:42:22.933Z,5.40
2022-10-22T11:45:03.460Z,5.75
2022-10-22T11:48:09.866Z,5.53
2022-10-22T11:51:00.860Z,6.35
2022-10-22T11:53:36.938Z,5.15
2022-10-22T11:56:21.221Z,5.28
2022-10-22T11:58:52.238Z,4.20
2022-10-22T12:01:27.512Z,5.38
2022-10-22T12:04:22.005Z,5.22
2022-10-22T12:07:02.434Z,4.05
2022-10-22T12:09:32.911Z,4.20
2022-10-22T12:12:11.881Z,4.20
2022-10-22T12:14:52.812Z,4.60
2022-10-22T12:17:21.916Z,4.68
2022-10-22T12:20:15.350Z,7.38
2022-10-22T12:22:42.695Z,7.40
2022-10-22T12:25:17.626Z,6.60
2022-10-22T12:27:45.048Z,4.75
2022-10-22T12:30:17.865Z,2.90
2022-10-22T12:32:44.881Z,5.45
2022-10-22T12:35:20.777Z,4.38
2022-10-22T12:38:01.599Z,3.67
2022-10-22T12:40:33.327Z,3.45
2022-10-22T12:43:07.570Z,5.53
2022-10-22T12:45:35.695Z,3.35
2022-10-22T12:48:06.428Z,7.03
2022-10-22T12:50:54.468Z,3.72
2022-10-22T12:53:27.789Z,5.97
2022-10-22T12:55:56.370Z,5.67
2022-10-22T12:58:27.914Z,6.00
2022-10-22T13:01:02.241Z,6.22
2022-10-22T13:03:36.098Z,7.25
2022-10-22T13:06:33.986Z,6.13
2022-10-22T13:09:08.188Z,4.25
2022-10-22T13:14:15.941Z,4.15
2022-10-22T13:16:42.800Z,4.90
2022-10-22T13:19:40.093Z,3.65
2022-10-22T13:22:28.685Z,8.32
2022-10-22T13:27:28.831Z,3.92
2022-10-22T13:29:57.246Z,4.93
2022-10-22T13:32:34.331Z,4.90
2022-10-22T13:35:04.669Z,5.30
2022-10-22T13:37:34.365Z,6.00
2022-10-22T13:40:01.281Z,6.15
2022-10-22T13:42:28.204Z,4.88
2022-10-22T13:44:55.070Z,4.70
2022-10-22T13:47:29.010Z,4.78
2022-10-22T13:49:58.751Z,4.82
2022-10-22T13:52:36.015Z,4.25
2022-10-22T13:55:18.173Z,4.10
2022-10-22T13:57:45.972Z,5.38
2022-10-22T14:00:19.157Z,5.72
2022-10-22T14:02:49.270Z,6.05
2022-10-22T14:05:20.530Z,4.47
2022-10-22T14:07:47.806Z,6.53
2022-10-22T14:10:18.348Z,5.95
2022-10-22T14:12:49.278Z,4.15
2022-10-22T14:15:19.967Z,4.82
2022-10-22T14:17:49.979Z,3.58
2022-10-22T14:20:21.113Z,6.05
2022-10-22T14:22:49.257Z,4.20
2022-10-22T14:25:18.882Z,6.03
2022-10-22T14:27:46.138Z,3.97
2022-10-22T14:30:18.064Z,8.98
2022-10-22T14:32:45.410Z,3.92
2022-10-22T14:35:14.613Z,4.03
2022-10-22T14:37:41.946Z,4.72
2022-10-22T14:40:12.538Z,4.57
2022-10-22T14:42:42.964Z,5.30
2022-10-22T14:45:19.885Z,6.90
2022-10-22T14:47:46.899Z,3.80
2022-10-22T14:50:14.561Z,4.70
2022-10-22T14:52:43.591Z,5.47
2022-10-22T14:55:12.534Z,5.45
2022-10-22T14:57:40.488Z,5.70
2022-10-22T15:00:13.545Z,3.83
2022-10-22T15:02:40.686Z,5.75
2022-10-22T15:05:08.205Z,7.50
2022-10-22T15:07:35.611Z,8.80
2022-10-22T15:10:02.692Z,6.43
2022-10-22T15:27:18.867Z,4.80
2022-10-22T15:29:45.726Z,7.15
2022-10-22T15:32:12.608Z,10.57
2022-10-22T15:34:39.995Z,3.85
2022-10-22T15:37:10.341Z,5.32
2022-10-22T15:39:41.070Z,3.42
2022-10-22T15:42:09.609Z,8.50
2022-10-22T15:44:36.958Z,4.90
2022-10-22T15:47:06.409Z,3.78
2022-10-22T15:49:35.742Z,5.70
2022-10-22T15:52:02.790Z,6.30
2022-10-22T15:54:30.968Z,4.95
2022-10-22T15:56:59.642Z,4.72
2022-10-22T15:59:26.534Z,5.07
2022-10-22T16:01:53.470Z,8.02
2022-10-22T16:04:20.378Z,4.70
2022-10-22T16:06:49.410Z,6.97
2022-10-22T16:09:19.148Z,6.72
2022-10-22T16:11:46.365Z,8.35
2022-10-22T16:14:15.445Z,5.90
2022-10-22T16:16:44.713Z,5.80
2022-10-22T16:19:13.346Z,5.55
2022-10-22T16:21:40.702Z,4.40
2022-10-22T16:24:09.077Z,5.60
2022-10-22T16:26:36.044Z,6.65
2022-10-22T16:29:03.547Z,6.93
2022-10-22T16:31:30.403Z,7.25
2022-10-22T16:33:58.377Z,6.13
2022-10-22T16:36:25.405Z,4.20
2022-10-22T16:38:52.224Z,6.18
2022-10-22T16:41:24.928Z,4.60
2022-10-22T16:44:00.416Z,5.25
2022-10-22T16:46:27.269Z,8.10
2022-10-22T16:48:57.840Z,4.38
2022-10-22T16:51:27.654Z,4.80
2022-10-22T16:53:56.203Z,9.27
2022-10-22T16:56:23.877Z,8.30
2022-10-22T16:58:53.562Z,3.97
2022-10-22T17:01:23.020Z,5.60
2022-10-22T17:03:49.918Z,8.35
2022-10-22T17:06:16.853Z,7.28
2022-10-22T17:08:44.056Z,4.50
2022-10-22T17:11:19.189Z,7.13
2022-10-22T17:13:52.721Z,6.95
2022-10-22T17:16:22.536Z,9.10
2022-10-22T17:18:49.585Z,9.50
2022-10-22T17:21:17.443Z,8.35
2022-10-22T17:23:44.877Z,6.05
2022-10-22T17:26:20.961Z,10.13
2022-10-22T17:28:48.904Z,8.23
2022-10-22T17:31:22.958Z,5.43
2022-10-22T17:33:52.153Z,8.57
2022-10-22T17:36:19.709Z,6.72
2022-10-22T17:38:49.681Z,5.70
2022-10-22T17:41:19.500Z,4.95
2022-10-22T17:46:21.614Z,6.07
2022-10-22T17:48:53.445Z,4.55
2022-10-22T17:51:21.905Z,5.68
2022-10-22T17:53:51.980Z,7.85
2022-10-22T17:56:21.549Z,8.23
2022-10-22T17:58:49.082Z,8.52
2022-10-22T18:01:20.937Z,9.30
2022-10-22T18:03:47.929Z,5.32
2022-10-22T18:06:15.052Z,5.53
2022-10-22T18:08:42.090Z,6.43
2022-10-22T18:11:11.835Z,10.57
2022-10-22T18:13:38.969Z,9.27
2022-10-22T18:16:06.191Z,6.65
2022-10-22T18:18:34.355Z,6.20
2022-10-22T18:21:01.877Z,7.32
2022-10-22T18:23:28.812Z,7.95
2022-10-22T18:25:55.816Z,12.73
2022-10-22T18:28:22.834Z,6.53
2022-10-22T18:30:49.874Z,5.45
2022-10-22T18:33:18.851Z,8.52
2022-10-22T18:35:48.873Z,6.47
2022-10-22T18:38:15.834Z,8.63
2022-10-22T18:40:46.844Z,11.60
2022-10-22T18:43:14.285Z,7.13
2022-10-22T18:45:45.511Z,8.18
2022-10-22T18:48:18.113Z,8.52
2022-10-22T18:50:46.754Z,10.90
2022-10-22T18:53:15.277Z,6.47
2022-10-22T18:55:42.516Z,9.07
2022-10-22T18:58:09.273Z,9.18
2022-10-22T19:00:36.823Z,9.93
2022-10-22T19:03:03.747Z,8.75
2022-10-22T19:05:31.117Z,13.98
2022-10-22T19:07:59.179Z,8.88
2022-10-22T19:10:26.092Z,7.55
2022-10-22T19:12:52.990Z,11.27
2022-10-22T19:15:19.891Z,9.18
2022-10-22T19:17:46.856Z,7.65
2022-10-22T19:20:13.765Z,7.68
2022-10-22T19:22:40.541Z,5.57
2022-10-22T19:25:11.163Z,7.57
2022-10-22T19:27:40.154Z,7.25
2022-10-22T19:30:07.796Z,10.32
2022-10-22T19:32:35.136Z,8.10
2022-10-22T19:35:02.466Z,9.98
2022-10-22T19:37:29.316Z,13.07
2022-10-22T19:39:56.173Z,8.57
2022-10-22T19:42:23.063Z,7.40
2022-10-22T19:44:49.844Z,9.32
2022-10-22T19:47:16.920Z,10.82
2022-10-22T19:49:43.847Z,8.23
2022-10-22T19:52:10.793Z,8.90
2022-10-22T19:54:40.899Z,8.68
2022-10-22T19:57:08.781Z,7.10
2022-10-22T19:59:36.361Z,9.45
2022-10-22T20:02:03.264Z,10.15
2022-10-22T20:04:30.202Z,9.02
2022-10-22T20:06:57.104Z,11.60
2022-10-22T20:09:23.967Z,6.38
2022-10-22T20:11:50.912Z,10.38
2022-10-22T20:14:17.800Z,9.75
2022-10-22T20:16:44.787Z,6.97
2022-10-22T20:19:16.128Z,8.25
2022-10-22T20:21:44.145Z,8.45
2022-10-22T20:24:12.393Z,13.05
2022-10-22T20:26:39.298Z,11.38
2022-10-22T20:29:06.389Z,11.23
2022-10-22T20:31:33.534Z,11.18
2022-10-22T20:34:01.389Z,12.63
2022-10-22T20:36:30.052Z,16.10
2022-10-22T20:39:05.862Z,14.63
2022-10-22T20:41:34.445Z,10.35
2022-10-22T20:44:01.328Z,22.42
2022-10-22T20:46:30.968Z,13.98
2022-10-22T20:49:07.304Z,12.05
2022-10-22T20:51:35.707Z,13.27
2022-10-22T20:54:02.568Z,14.82
2022-10-22T20:56:29.524Z,10.57
2022-10-22T20:59:04.823Z,9.93
2022-10-22T21:01:36.613Z,10.48
2022-10-22T21:04:03.995Z,11.25
2022-10-22T21:06:30.884Z,12.32
2022-10-22T21:08:57.846Z,17.52
2022-10-22T21:11:25.061Z,17.38
2022-10-22T21:13:52.016Z,11.07
2022-10-22T21:16:19.785Z,10.20
2022-10-22T21:18:47.211Z,12.38
2022-10-22T21:21:17.042Z,13.00
2022-10-22T21:23:43.949Z,16.90
2022-10-22T21:26:10.876Z,16.60
2022-10-22T21:28:38.285Z,12.32
2022-10-22T21:31:10.265Z,12.73
2022-10-22T21:33:39.260Z,8.35
2022-10-22T21:36:09.246Z,10.98
2022-10-22T21:38:37.639Z,12.27
2022-10-22T21:41:06.429Z,11.13
2022-10-22T21:43:33.684Z,10.73
2022-10-22T21:46:08.617Z,12.25
2022-10-22T21:48:37.194Z,8.20
2022-10-22T21:51:08.702Z,12.27
2022-10-22T21:53:36.426Z,9.98
2022-10-22T21:56:04.685Z,13.93
2022-10-22T21:58:31.609Z,10.20
2022-10-22T22:00:58.651Z,8.30
2022-10-22T22:03:25.516Z,12.63
2022-10-22T22:05:58.890Z,11.07
2022-10-22T22:08:26.345Z,13.90
2022-10-22T22:10:53.883Z,11.00
2022-10-22T22:13:24.943Z,12.20
2022-10-22T22:15:52.708Z,10.95
2022-10-22T22:18:20.374Z,12.00
2022-10-22T22:20:47.212Z,11.57
2022-10-22T22:23:14.017Z,12.35
2022-10-22T22:25:40.857Z,14.00
2022-10-22T22:28:07.749Z,9.02
2022-10-22T22:30:34.602Z,9.43
2022-10-22T22:33:01.453Z,11.32
2022-10-22T22:35:28.987Z,12.25
2022-10-22T22:37:55.943Z,11.25
2022-10-22T22:40:22.834Z,11.80
2022-10-22T22:42:49.884Z,8.65
2022-10-22T22:45:16.705Z,9.35
2022-10-22T22:47:43.767Z,11.32
2022-10-22T22:50:14.039Z,10.75
2022-10-22T22:52:41.500Z,11.48
2022-10-22T22:55:11.149Z,9.48
2022-10-22T22:57:38.043Z,12.38
2022-10-22T23:00:08.106Z,7.53
2022-10-22T23:02:37.889Z,10.20
2022-10-22T23:05:05.650Z,9.45
2022-10-22T23:07:32.555Z,11.70
2022-10-22T23:10:02.112Z,11.52
2022-10-22T23:12:29.340Z,8.75
2022-10-22T23:15:02.337Z,10.43
2022-10-22T23:17:29.373Z,13.70
2022-10-22T23:19:56.267Z,13.48
2022-10-22T23:22:23.147Z,13.43
2022-10-22T23:24:50.361Z,12.07
2022-10-22T23:27:17.232Z,12.90
2022-10-22T23:29:44.203Z,10.73
2022-10-22T23:32:16.789Z,10.23
2022-10-22T23:34:44.042Z,14.45
2022-10-22T23:37:13.466Z,10.43
2022-10-22T23:39:40.687Z,11.50
2022-10-22T23:42:07.553Z,15.32
2022-10-22T23:44:34.780Z,18.83
2022-10-22T23:47:01.570Z,10.32
2022-10-22T23:49:28.515Z,9.70
2022-10-22T23:51:55.596Z,12.27
2022-10-22T23:54:22.404Z,12.98
2022-10-22T23:56:50.209Z,12.50
2022-10-22T23:59:17.075Z,12.15
